createdAt,value
2018-08-13T00:01:43.407Z,23.15
2018-08-13T00:04:11.954Z,23.14
2018-08-13T00:06:40.450Z,23.12
2018-08-13T00:09:09.049Z,23.10
2018-08-13T00:11:37.719Z,23.09
2018-08-13T00:14:06.353Z,23.08
2018-08-13T00:16:34.884Z,23.07
2018-08-13T00:19:03.510Z,23.09
2018-08-13T00:21:32.090Z,23.09
2018-08-13T00:24:00.686Z,23.09
2018-08-13T00:26:29.239Z,23.09
2018-08-13T00:28:57.751Z,23.07
2018-08-13T00:31:26.422Z,23.05
2018-08-13T00:33:54.953Z,23.04
2018-08-13T00:36:23.524Z,23.03
2018-08-13T00:38:52.110Z,23.05
2018-08-13T00:41:20.755Z,23.06
2018-08-13T00:43:49.277Z,23.08
2018-08-13T00:46:17.928Z,23.09
2018-08-13T00:48:46.471Z,23.10
2018-08-13T00:51:15.119Z,23.11
2018-08-13T00:53:43.671Z,23.11
2018-08-13T00:56:12.224Z,23.10
2018-08-13T00:58:40.816Z,23.09
2018-08-13T01:01:09.392Z,23.05
2018-08-13T01:03:37.932Z,23.01
2018-08-13T01:06:06.461Z,22.97
2018-08-13T01:08:35.098Z,22.93
2018-08-13T01:11:03.638Z,22.91
2018-08-13T01:13:32.212Z,22.89
2018-08-13T01:16:06.784Z,22.87
2018-08-13T01:18:35.311Z,22.64
2018-08-13T01:21:03.889Z,22.84
2018-08-13T01:23:32.489Z,22.82
2018-08-13T01:26:01.125Z,22.81
2018-08-13T01:28:29.656Z,22.78
2018-08-13T01:30:58.232Z,22.75
2018-08-13T01:33:26.844Z,22.72
2018-08-13T01:35:55.388Z,22.69
2018-08-13T01:38:23.980Z,22.65
2018-08-13T01:40:52.559Z,22.65
2018-08-13T01:43:21.220Z,22.65
2018-08-13T01:45:49.742Z,22.64
2018-08-13T01:48:18.374Z,22.60
2018-08-13T01:50:46.980Z,22.60
2018-08-13T01:53:15.561Z,22.60
2018-08-13T01:55:44.132Z,22.58
2018-08-13T01:58:12.688Z,22.58
2018-08-13T02:00:41.252Z,22.59
2018-08-13T02:03:09.796Z,22.57
2018-08-13T02:05:38.349Z,22.57
2018-08-13T02:08:07.168Z,22.57
2018-08-13T02:10:35.708Z,22.58
2018-08-13T02:13:04.258Z,22.56
2018-08-13T02:15:32.840Z,22.57
2018-08-13T02:18:01.372Z,22.61
2018-08-13T02:20:29.971Z,22.67
2018-08-13T02:22:58.517Z,22.73
2018-08-13T02:25:27.140Z,22.79
2018-08-13T02:27:55.752Z,22.88
2018-08-13T02:30:24.279Z,22.95
2018-08-13T02:32:52.948Z,23.01
2018-08-13T02:35:21.479Z,23.05
2018-08-13T02:37:50.035Z,23.08
2018-08-13T02:40:18.656Z,23.09
2018-08-13T02:42:47.202Z,23.10
2018-08-13T02:45:15.788Z,23.07
2018-08-13T02:47:44.349Z,23.05
2018-08-13T02:50:14.150Z,23.06
2018-08-13T02:52:42.883Z,23.03
2018-08-13T02:55:12.343Z,23.00
2018-08-13T02:57:40.921Z,22.96
2018-08-13T03:00:10.886Z,22.95
2018-08-13T03:02:40.142Z,22.93
2018-08-13T03:05:11.045Z,22.76
2018-08-13T03:07:39.973Z,22.91
2018-08-13T03:10:10.947Z,22.89
2018-08-13T03:12:39.664Z,22.88
2018-08-13T03:15:11.897Z,22.88
2018-08-13T03:17:40.620Z,22.85
2018-08-13T03:20:09.540Z,22.84
2018-08-13T03:22:38.252Z,22.84
2018-08-13T03:25:08.745Z,22.84
2018-08-13T03:27:37.530Z,22.85
2018-08-13T03:30:08.741Z,22.86
2018-08-13T03:32:37.628Z,22.88
2018-08-13T03:35:06.380Z,22.91
2018-08-13T03:37:35.041Z,22.93
2018-08-13T03:40:03.883Z,22.96
2018-08-13T03:42:32.463Z,22.97
2018-08-13T03:45:01.204Z,23.00
2018-08-13T03:47:29.788Z,23.06
2018-08-13T03:49:58.383Z,23.14
2018-08-13T03:52:27.153Z,23.22
2018-08-13T03:54:55.934Z,23.30
2018-08-13T03:57:24.537Z,23.36
2018-08-13T03:59:53.316Z,23.41
2018-08-13T04:02:21.883Z,23.48
2018-08-13T04:04:50.453Z,22.84
2018-08-13T04:07:19.006Z,23.61
2018-08-13T04:09:47.521Z,23.68
2018-08-13T04:12:16.022Z,23.73
2018-08-13T04:14:44.570Z,23.78
2018-08-13T04:17:13.081Z,23.83
2018-08-13T04:19:41.572Z,23.89
2018-08-13T04:22:10.084Z,23.94
2018-08-13T04:24:38.787Z,24.03
2018-08-13T04:27:07.295Z,24.14
2018-08-13T04:29:36.343Z,24.24
2018-08-13T04:32:04.886Z,24.37
2018-08-13T04:34:33.787Z,24.49
2018-08-13T04:37:02.405Z,24.60
2018-08-13T04:39:31.042Z,24.64
2018-08-13T04:41:59.675Z,24.66
2018-08-13T04:44:28.252Z,24.69
2018-08-13T04:46:56.979Z,24.71
2018-08-13T04:49:25.665Z,24.72
2018-08-13T04:51:54.209Z,24.73
2018-08-13T04:54:22.768Z,24.72
2018-08-13T04:56:51.260Z,24.71
2018-08-13T04:59:19.947Z,24.67
2018-08-13T05:01:48.955Z,24.65
2018-08-13T05:04:17.693Z,24.60
2018-08-13T05:06:46.433Z,24.53
2018-08-13T05:09:14.980Z,24.48
2018-08-13T05:11:43.516Z,24.46
2018-08-13T05:14:12.252Z,24.42
2018-08-13T05:16:41.487Z,24.39
2018-08-13T05:19:10.128Z,24.39
2018-08-13T05:21:38.696Z,24.35
2018-08-13T05:24:07.371Z,24.34
2018-08-13T05:26:36.085Z,24.35
2018-08-13T05:29:04.974Z,24.39
2018-08-13T05:31:33.939Z,24.39
2018-08-13T05:34:02.561Z,24.46
2018-08-13T05:36:31.085Z,24.49
2018-08-13T05:38:59.754Z,24.53
2018-08-13T05:41:28.480Z,24.58
2018-08-13T05:43:57.000Z,24.57
2018-08-13T05:46:25.575Z,24.57
2018-08-13T05:48:54.319Z,24.58
2018-08-13T05:51:22.832Z,24.57
2018-08-13T05:53:51.373Z,24.54
2018-08-13T05:56:20.089Z,24.49
2018-08-13T05:58:48.575Z,24.41
2018-08-13T06:01:17.281Z,24.35
2018-08-13T06:03:45.827Z,24.31
2018-08-13T06:06:14.603Z,24.24
2018-08-13T06:08:43.170Z,24.18
2018-08-13T06:11:11.768Z,24.07
2018-08-13T06:13:40.660Z,23.94
2018-08-13T06:16:09.580Z,23.84
2018-08-13T06:18:38.272Z,23.68
2018-08-13T06:21:07.021Z,23.54
2018-08-13T06:23:35.475Z,23.47
2018-08-13T06:26:03.971Z,23.42
2018-08-13T06:28:32.792Z,23.36
2018-08-13T06:31:01.334Z,23.26
2018-08-13T06:33:30.130Z,23.06
2018-08-13T06:35:58.767Z,22.93
2018-08-13T06:38:27.288Z,22.83
2018-08-13T06:40:55.920Z,22.74
2018-08-13T06:43:24.621Z,22.69
2018-08-13T06:45:53.192Z,22.69
2018-08-13T06:48:21.772Z,22.70
2018-08-13T06:50:50.363Z,22.72
2018-08-13T06:53:18.999Z,22.73
2018-08-13T06:55:47.633Z,22.77
2018-08-13T06:58:16.160Z,22.84
2018-08-13T07:00:44.843Z,22.92
2018-08-13T07:03:13.452Z,23.02
2018-08-13T07:05:41.996Z,23.07
2018-08-13T07:08:10.544Z,23.14
2018-08-13T07:10:39.206Z,23.14
2018-08-13T07:13:07.747Z,23.12
2018-08-13T07:15:36.425Z,23.19
2018-08-13T07:18:05.766Z,23.29
2018-08-13T07:20:34.330Z,23.39
2018-08-13T07:23:03.069Z,23.42
2018-08-13T07:25:31.760Z,23.42
2018-08-13T07:28:00.564Z,23.42
2018-08-13T07:30:29.110Z,23.44
2018-08-13T07:32:57.859Z,23.51
2018-08-13T07:35:26.540Z,23.50
2018-08-13T07:37:55.159Z,23.49
2018-08-13T07:40:23.850Z,23.33
2018-08-13T07:42:52.375Z,23.11
2018-08-13T07:45:20.976Z,22.95
2018-08-13T07:47:49.640Z,22.80
2018-08-13T07:50:18.317Z,22.74
2018-08-13T07:52:47.012Z,22.48
2018-08-13T07:55:15.645Z,22.09
2018-08-13T07:57:44.281Z,21.76
2018-08-13T08:00:16.292Z,21.58
2018-08-13T08:02:45.231Z,21.44
2018-08-13T08:05:13.912Z,21.40
2018-08-13T08:07:42.659Z,21.36
2018-08-13T08:10:13.206Z,21.36
2018-08-13T08:12:42.127Z,21.35
2018-08-13T08:15:15.754Z,21.32
2018-08-13T08:17:44.713Z,21.30
2018-08-13T08:20:13.355Z,21.32
2018-08-13T08:22:41.960Z,21.35
2018-08-13T08:25:16.112Z,21.40
2018-08-13T08:27:45.410Z,21.44
2018-08-13T08:30:14.624Z,21.53
2018-08-13T08:32:43.259Z,21.60
2018-08-13T08:35:13.536Z,21.66
2018-08-13T08:37:42.492Z,21.67
2018-08-13T08:40:13.642Z,21.69
2018-08-13T08:42:42.224Z,21.73
2018-08-13T08:45:17.748Z,21.76
2018-08-13T08:47:46.566Z,21.80
2018-08-13T08:50:16.090Z,21.91
2018-08-13T08:52:45.572Z,22.04
2018-08-13T08:55:14.669Z,22.18
2018-08-13T08:57:43.554Z,22.36
2018-08-13T09:00:16.511Z,22.51
2018-08-13T09:02:45.155Z,22.67
2018-08-13T09:05:14.210Z,22.79
2018-08-13T09:07:43.754Z,22.95
2018-08-13T09:10:12.507Z,23.10
2018-08-13T09:12:41.413Z,23.36
2018-08-13T09:15:12.617Z,24.04
2018-08-13T09:17:52.182Z,24.85
2018-08-13T09:20:31.848Z,25.33
2018-08-13T09:23:11.712Z,25.63
2018-08-13T09:25:51.418Z,25.80
2018-08-13T09:28:30.989Z,25.96
2018-08-13T09:33:16.741Z,26.01
2018-08-13T09:35:45.377Z,26.06
2018-08-13T09:38:13.872Z,26.26
2018-08-13T09:40:42.473Z,26.79
2018-08-13T09:43:11.260Z,27.73
2018-08-13T09:45:39.873Z,28.57
2018-08-13T09:48:08.522Z,28.94
2018-08-13T09:50:37.121Z,29.09
2018-08-13T09:53:06.428Z,29.22
2018-08-13T09:55:35.000Z,29.36
2018-08-13T09:58:03.697Z,29.31
2018-08-13T10:00:37.538Z,29.21
2018-08-13T10:03:06.438Z,28.93
2018-08-13T10:05:35.269Z,28.88
2018-08-13T10:08:03.984Z,28.96
2018-08-13T10:10:32.694Z,28.83
2018-08-13T10:13:06.734Z,28.59
2018-08-13T10:15:35.364Z,28.34
2018-08-13T10:18:04.377Z,28.14
2018-08-13T10:20:32.928Z,28.81
2018-08-13T10:23:01.566Z,30.03
2018-08-13T10:25:30.263Z,30.81
2018-08-13T10:27:58.904Z,31.25
2018-08-13T10:30:27.634Z,32.48
2018-08-13T10:32:56.299Z,34.54
2018-08-13T10:35:24.944Z,35.64
2018-08-13T10:37:53.604Z,35.94
2018-08-13T10:40:22.183Z,36.85
2018-08-13T10:42:51.497Z,36.45
2018-08-13T10:45:20.070Z,36.34
2018-08-13T10:47:48.712Z,37.30
2018-08-13T10:50:17.313Z,38.93
2018-08-13T10:52:45.894Z,39.36
2018-08-13T10:55:15.627Z,38.44
2018-08-13T10:57:44.370Z,36.83
2018-08-13T11:00:15.106Z,35.46
2018-08-13T11:02:43.800Z,34.14
2018-08-13T11:05:13.976Z,32.90
2018-08-13T11:07:42.482Z,31.98
2018-08-13T11:10:12.499Z,31.21
2018-08-13T11:12:41.162Z,30.66
2018-08-13T11:15:13.844Z,30.06
2018-08-13T11:17:42.475Z,29.99
2018-08-13T11:20:11.060Z,30.04
2018-08-13T11:22:40.617Z,30.63
2018-08-13T11:25:10.703Z,30.98
2018-08-13T11:27:39.361Z,31.49
2018-08-13T11:30:10.085Z,31.85
2018-08-13T11:32:38.643Z,31.97
2018-08-13T11:35:07.759Z,31.87
2018-08-13T11:37:36.622Z,31.65
2018-08-13T11:40:08.917Z,31.12
2018-08-13T11:42:37.578Z,30.45
2018-08-13T11:45:06.360Z,30.04
2018-08-13T11:47:35.921Z,29.54
2018-08-13T11:50:08.224Z,29.19
2018-08-13T11:52:36.762Z,28.86
2018-08-13T11:55:05.439Z,28.65
2018-08-13T11:57:35.473Z,28.42
2018-08-13T12:00:07.088Z,28.30
2018-08-13T12:02:35.967Z,28.30
2018-08-13T12:05:06.447Z,28.44
2018-08-13T12:07:35.217Z,28.51
2018-08-13T12:10:04.062Z,28.47
2018-08-13T12:12:32.948Z,28.64
2018-08-13T12:15:03.081Z,28.56
2018-08-13T12:17:32.159Z,28.45
2018-08-13T12:20:01.433Z,28.26
2018-08-13T12:22:30.103Z,28.16
2018-08-13T12:24:58.842Z,28.13
2018-08-13T12:27:27.505Z,28.25
2018-08-13T12:29:56.045Z,28.44
2018-08-13T12:32:24.538Z,28.47
2018-08-13T12:34:53.771Z,28.26
2018-08-13T12:37:22.434Z,27.97
2018-08-13T12:39:50.988Z,27.70
2018-08-13T12:42:19.493Z,27.52
2018-08-13T12:44:48.060Z,27.10
2018-08-13T12:47:16.692Z,27.19
2018-08-13T12:49:45.243Z,27.03
2018-08-13T12:52:13.920Z,26.85
2018-08-13T12:54:42.450Z,26.66
2018-08-13T12:57:11.083Z,26.36
2018-08-13T12:59:41.153Z,25.89
2018-08-13T13:02:09.924Z,25.47
2018-08-13T13:04:38.586Z,25.26
2018-08-13T13:07:07.142Z,25.19
2018-08-13T13:09:35.749Z,25.15
2018-08-13T13:12:04.314Z,25.12
2018-08-13T13:14:32.885Z,25.10
2018-08-13T13:17:01.473Z,25.12
2018-08-13T13:19:30.073Z,25.17
2018-08-13T13:21:58.601Z,25.42
2018-08-13T13:24:27.144Z,25.83
2018-08-13T13:26:55.652Z,26.25
2018-08-13T13:29:24.225Z,26.55
2018-08-13T13:31:52.852Z,26.78
2018-08-13T13:34:21.421Z,26.95
2018-08-13T13:36:49.868Z,27.08
2018-08-13T13:39:18.456Z,27.26
2018-08-13T13:41:47.026Z,27.40
2018-08-13T13:44:15.552Z,27.57
2018-08-13T13:46:44.093Z,27.71
2018-08-13T13:49:12.610Z,27.83
2018-08-13T13:51:41.227Z,27.90
2018-08-13T13:54:09.723Z,27.99
2018-08-13T13:56:38.320Z,28.11
2018-08-13T13:59:07.156Z,28.13
2018-08-13T14:01:35.831Z,28.14
2018-08-13T14:04:04.410Z,28.26
2018-08-13T14:06:33.851Z,28.37
2018-08-13T14:09:02.560Z,28.51
2018-08-13T14:11:31.155Z,28.53
2018-08-13T14:13:59.686Z,28.51
2018-08-13T14:16:28.259Z,28.58
2018-08-13T14:18:56.830Z,28.62
2018-08-13T14:21:25.376Z,28.63
2018-08-13T14:23:53.914Z,28.59
2018-08-13T14:26:22.544Z,28.59
2018-08-13T14:28:51.085Z,28.58
2018-08-13T14:31:19.805Z,28.45
2018-08-13T14:33:48.376Z,28.24
2018-08-13T14:36:16.923Z,28.03
2018-08-13T14:38:45.547Z,27.68
2018-08-13T14:41:14.311Z,27.30
2018-08-13T14:43:42.869Z,26.95
2018-08-13T14:46:11.924Z,26.67
2018-08-13T14:48:40.524Z,26.41
2018-08-13T14:51:09.098Z,26.22
2018-08-13T14:53:38.003Z,26.06
2018-08-13T14:56:07.120Z,25.96
2018-08-13T14:58:35.622Z,25.97
2018-08-13T15:01:04.069Z,26.05
2018-08-13T15:03:32.590Z,26.20
2018-08-13T15:06:01.128Z,26.41
2018-08-13T15:08:29.632Z,26.59
2018-08-13T15:10:58.228Z,26.69
2018-08-13T15:13:26.802Z,26.80
2018-08-13T15:15:55.568Z,26.91
2018-08-13T15:18:24.766Z,26.97
2018-08-13T15:20:53.253Z,27.02
2018-08-13T15:23:21.939Z,27.03
2018-08-13T15:25:50.480Z,27.04
2018-08-13T15:28:19.095Z,27.05
2018-08-13T15:30:47.740Z,27.06
2018-08-13T15:33:16.495Z,27.18
2018-08-13T15:35:45.380Z,27.31
2018-08-13T15:38:13.933Z,27.43
2018-08-13T15:40:42.666Z,27.53
2018-08-13T15:43:11.278Z,27.48
2018-08-13T15:45:40.101Z,27.42
2018-08-13T15:48:08.895Z,27.34
2018-08-13T15:50:37.435Z,27.31
2018-08-13T15:53:06.615Z,27.37
2018-08-13T15:55:35.275Z,27.47
2018-08-13T15:58:04.107Z,27.55
2018-08-13T16:00:32.923Z,27.67
2018-08-13T16:03:01.683Z,27.76
2018-08-13T16:05:30.199Z,27.77
2018-08-13T16:07:58.907Z,27.77
2018-08-13T16:10:27.679Z,27.80
2018-08-13T16:12:56.420Z,27.89
2018-08-13T16:15:27.169Z,27.95
2018-08-13T16:17:55.684Z,27.95
2018-08-13T16:20:24.435Z,27.89
2018-08-13T16:22:53.117Z,27.76
2018-08-13T16:25:21.680Z,27.67
2018-08-13T16:27:50.360Z,27.54
2018-08-13T16:30:24.635Z,27.43
2018-08-13T16:32:53.271Z,27.33
2018-08-13T16:35:22.892Z,27.29
2018-08-13T16:37:51.551Z,27.25
2018-08-13T16:40:21.204Z,27.22
2018-08-13T16:42:50.045Z,27.17
2018-08-13T16:45:20.674Z,27.12
2018-08-13T16:47:49.286Z,27.10
2018-08-13T16:50:27.101Z,27.07
2018-08-13T16:52:56.064Z,26.98
2018-08-13T16:55:24.940Z,26.94
2018-08-13T16:57:53.740Z,26.89
2018-08-13T17:00:25.309Z,26.87
2018-08-13T17:02:54.071Z,26.85
2018-08-13T17:05:22.951Z,26.85
2018-08-13T17:07:51.796Z,26.84
2018-08-13T17:10:24.592Z,26.82
2018-08-13T17:12:54.289Z,26.78
2018-08-13T17:15:23.660Z,26.72
2018-08-13T17:17:54.415Z,26.60
2018-08-13T17:20:26.396Z,26.55
2018-08-13T17:22:55.403Z,26.45
2018-08-13T17:25:24.170Z,26.36
2018-08-13T17:27:52.926Z,26.27
2018-08-13T17:30:23.509Z,26.19
2018-08-13T17:32:53.409Z,26.15
2018-08-13T17:35:24.097Z,26.10
2018-08-13T17:37:52.812Z,26.02
2018-08-13T17:40:23.437Z,25.92
2018-08-13T17:42:52.859Z,25.83
2018-08-13T17:45:21.990Z,25.76
2018-08-13T17:47:50.922Z,25.68
2018-08-13T17:50:21.175Z,25.64
2018-08-13T17:52:49.808Z,25.57
2018-08-13T17:55:18.894Z,25.51
2018-08-13T17:57:47.736Z,25.46
2018-08-13T18:00:18.618Z,25.42
2018-08-13T18:02:47.258Z,25.34
2018-08-13T18:05:21.972Z,25.29
2018-08-13T18:07:51.143Z,25.21
2018-08-13T18:10:25.009Z,25.12
2018-08-13T18:13:02.495Z,25.05
2018-08-13T18:15:31.721Z,24.96
2018-08-13T18:18:00.454Z,24.91
2018-08-13T18:20:29.212Z,24.82
2018-08-13T18:22:57.943Z,24.79
2018-08-13T18:25:26.577Z,24.73
2018-08-13T18:27:55.228Z,24.64
2018-08-13T18:30:26.765Z,24.62
2018-08-13T18:32:55.720Z,24.58
2018-08-13T18:35:24.621Z,24.53
2018-08-13T18:37:53.325Z,24.49
2018-08-13T18:40:27.857Z,24.45
2018-08-13T18:42:56.696Z,24.42
2018-08-13T18:45:25.550Z,24.41
2018-08-13T18:47:54.664Z,24.36
2018-08-13T18:50:23.714Z,24.33
2018-08-13T18:52:52.644Z,24.31
2018-08-13T18:55:22.765Z,24.26
2018-08-13T18:57:51.687Z,24.24
2018-08-13T19:00:28.629Z,24.19
2018-08-13T19:02:58.160Z,24.12
2018-08-13T19:05:26.833Z,24.07
2018-08-13T19:07:55.477Z,24.02
2018-08-13T19:10:24.045Z,23.99
2018-08-13T19:12:52.715Z,23.93
2018-08-13T19:15:24.625Z,23.90
2018-08-13T19:17:53.692Z,23.86
2018-08-13T19:20:22.274Z,23.80
2018-08-13T19:22:51.145Z,23.77
2018-08-13T19:25:22.599Z,23.74
2018-08-13T19:27:51.204Z,23.69
2018-08-13T19:30:20.955Z,23.66
2018-08-13T19:32:50.767Z,23.62
2018-08-13T19:35:19.476Z,23.57
2018-08-13T19:37:48.372Z,23.55
2018-08-13T19:40:19.124Z,23.52
2018-08-13T19:42:49.204Z,23.47
2018-08-13T19:45:18.664Z,23.44
2018-08-13T19:47:47.750Z,22.78
2018-08-13T19:50:17.045Z,23.38
2018-08-13T19:52:47.335Z,23.33
2018-08-13T19:55:16.455Z,23.31
2018-08-13T19:57:45.148Z,23.28
2018-08-13T20:00:24.216Z,23.25
2018-08-13T20:02:53.294Z,23.19
2018-08-13T20:05:23.658Z,23.14
2018-08-13T20:07:53.008Z,23.12
2018-08-13T20:10:21.672Z,23.11
2018-08-13T20:12:50.445Z,23.08
2018-08-13T20:15:19.068Z,23.03
2018-08-13T20:17:48.538Z,23.02
2018-08-13T20:20:18.557Z,23.01
2018-08-13T20:22:47.878Z,22.99
2018-08-13T20:25:17.665Z,22.97
2018-08-13T20:27:46.693Z,22.94
2018-08-13T20:30:17.741Z,22.89
2018-08-13T20:32:49.677Z,22.86
2018-08-13T20:38:09.143Z,22.79
2018-08-13T20:40:37.973Z,22.76
2018-08-13T20:43:06.918Z,22.75
2018-08-13T20:45:35.587Z,22.75
2018-08-13T20:48:04.457Z,22.74
2018-08-13T20:50:33.426Z,22.72
2018-08-13T20:53:01.989Z,22.57
2018-08-13T20:55:30.655Z,22.72
2018-08-13T20:57:59.404Z,22.71
2018-08-13T21:00:29.694Z,22.69
2018-08-13T21:02:58.369Z,22.66
2018-08-13T21:05:27.100Z,22.66
2018-08-13T21:07:55.736Z,22.66
2018-08-13T21:10:25.221Z,22.69
2018-08-13T21:12:54.070Z,22.72
2018-08-13T21:15:23.888Z,22.73
2018-08-13T21:17:52.509Z,22.77
2018-08-13T21:20:23.471Z,22.80
2018-08-13T21:22:52.169Z,22.83
2018-08-13T21:25:20.896Z,22.87
2018-08-13T21:27:49.536Z,22.86
2018-08-13T21:30:18.138Z,22.85
2018-08-13T21:32:47.056Z,22.86
2018-08-13T21:35:17.939Z,22.87
2018-08-13T21:37:46.787Z,22.88
2018-08-13T21:40:15.757Z,22.91
2018-08-13T21:42:44.767Z,22.92
2018-08-13T21:45:13.709Z,22.92
2018-08-13T21:47:42.423Z,22.88
2018-08-13T21:50:14.182Z,22.85
2018-08-13T21:52:42.847Z,22.82
2018-08-13T21:55:11.527Z,22.81
2018-08-13T21:57:40.188Z,22.81
2018-08-13T22:00:20.421Z,22.83
2018-08-13T22:02:49.256Z,22.87
2018-08-13T22:05:17.784Z,22.91
2018-08-13T22:07:46.481Z,22.95
2018-08-13T22:10:15.101Z,22.99
2018-08-13T22:12:43.755Z,23.04
2018-08-13T22:15:22.318Z,23.05
2018-08-13T22:17:50.871Z,23.07
2018-08-13T22:20:19.489Z,23.06
2018-08-13T22:22:48.319Z,23.07
2018-08-13T22:25:49.428Z,23.08
2018-08-13T22:28:18.783Z,23.00
2018-08-13T22:30:48.550Z,23.00
2018-08-13T22:33:17.172Z,23.00
2018-08-13T22:35:45.739Z,22.99
2018-08-13T22:38:14.347Z,22.99
2018-08-13T22:40:43.033Z,22.95
2018-08-13T22:43:11.577Z,22.93
2018-08-13T22:45:40.088Z,22.93
2018-08-13T22:48:08.664Z,22.93
2018-08-13T22:50:37.320Z,22.95
2018-08-13T22:53:05.891Z,22.95
2018-08-13T22:55:35.128Z,22.94
2018-08-13T22:58:03.707Z,22.97
2018-08-13T23:00:32.296Z,22.98
2018-08-13T23:17:12.663Z,22.99
2018-08-13T23:19:41.257Z,23.03
2018-08-13T23:22:09.894Z,23.03
2018-08-13T23:24:38.539Z,23.06
2018-08-13T23:27:07.233Z,23.06
2018-08-13T23:29:36.160Z,23.07
2018-08-13T23:32:04.813Z,23.06
2018-08-13T23:34:33.397Z,23.05
2018-08-13T23:37:02.056Z,23.03
2018-08-13T23:39:30.683Z,23.04
2018-08-13T23:41:59.384Z,23.01
2018-08-13T23:44:27.906Z,23.02
2018-08-13T23:46:56.694Z,23.03
2018-08-13T23:49:25.405Z,23.03
2018-08-13T23:51:54.213Z,23.06
2018-08-13T23:54:22.874Z,23.06
2018-08-13T23:56:51.682Z,23.03
2018-08-13T23:59:20.332Z,23.02
